SYRK1: Arkansas R at Syracuse, KS

                                SHEF ID:       SYRK1     ARKANSAS R AT SYRACUSE, KS
STATION TYPE:
Regulating: Stage = 10.00, Flow = 2000

PRECIP STAGE RIV-FLOW BAT-LOAD
in ft cfs volt
Ccp-Rev Ccp-Rev Ccp-Rev Ccp-Rev
(America/Chicago)
07/22 00:00 0.00 5.72 306 12.65
07/22 01:00 0.00 5.72 306 12.65
07/22 02:00 0.00 5.73 308 12.60
07/22 03:00 0.00 5.75 311 12.60
07/22 04:00 0.00 5.73 308 12.60
07/22 05:00 0.00 5.76 313 12.54
07/22 06:00 0.00 5.76 313 12.54
07/22 07:00 0.00 5.77 315 12.54
07/22 08:00 0.00 5.76 313 12.48
07/22 09:00 0.00 5.75 311 12.60
07/22 10:00 0.00 5.77 315 13.07
07/22 11:00 0.00 5.71 304 13.48
07/22 12:00 0.00 5.75 311 13.48
07/22 13:00 0.00 5.77 315 13.42
07/22 14:00 0.00 5.77 315 13.42
07/22 15:00 0.00 5.78 317 13.30
07/22 16:00 0.00 5.77 315 12.89
07/22 17:00 0.00 5.78 317 13.30
07/22 18:00 0.00 5.79 319 13.24
07/22 19:00 0.00 5.76 313 13.24
07/22 20:00 0.00 5.80 321 13.00
07/22 21:00 0.00 5.86 333 12.77
07/22 22:00 0.00 5.84 329 12.71
07/22 23:00 ---- ---- ---- ----
Data processed at Tue 23Jul2024 04:28 GMT

Parsing this webpage?

Checkout our new Data API! CWMSDataAPI (CDA)

Timeseries IDs (TSIDs)

TSIDs used from left to right in the data table
SYRA.Precip-Inc.Total.1Hour.1Hour.Ccp-Rev
SYRA.Stage.Inst.1Hour.0.Ccp-Rev
SYRA.Flow.Inst.1Hour.0.Ccp-Rev
SYRA.Volt-Battery Load.Inst.1Hour.0.Ccp-Rev

                            

All information presented herein is the property of the government of the United States of America and may be revised or deleted at any time without prior notice. Dissemination of this information without the expressed written consent of the Public Affairs Office, Tulsa District U.S. Army Corps of Engineers is strictly prohibited. These data are gathered electronically and, as presented, have NOT undergone any form of quality control. These data are NOT guaranteed to be valid or correct.